Aérodrome :
LOGIN :

S'inscrire | Disclaimer

   EN    FR    IT 

 










Légende :    VFR   VFR Marginal   IFR   IFR Intensif   IFR Très Intensif
Visi : 
Plafond : 
>= 8 km
>= 3000ft
5 à 8 km
1000 à 3000 ft
1500m à 5 km
500 à 1000 ft
800 à 1500m
200 à 500 ft
< 800m
< 200 ft
Symboles :   Orages  Brouillard  Fortes neiges  Fortes précipitations  Vent > 20 kt
SIGMETs :   Divers  Orages  Givrage  Turbulence  Onde Orograph.  Cendres Volcan.






- Altitude de l'aérodrome : 325 ft
- Code IATA : POX


LFPT - Pontoise

DERNIER METAR :
  • 140730Z AUTO 25010KT CAVOK 07/02 Q0997

METARs EXPIRÉS :
  • 140700Z AUTO 26013KT CAVOK 08/02 Q0996
  • 140630Z AUTO 27016G26KT CAVOK 08/02 Q0995
  • 140600Z AUTO 27017KT 9999 FEW035 08/02 Q0994
  • 140530Z AUTO 28020KT 250V310 9999 FEW026/// SCT048/// BKN054/// ///TCU 08/03 Q0994
  • 140500Z AUTO 26013G25KT 230V290 9999 BKN027/// BKN034/// OVC041/// ///TCU 09/05 Q0993

TAF N/A
ATIS : +33 1 30 30 52 08



MET'MAP, la Météo Aéronautique d'un coup d'oeil ! - Copyright ORBIFLY Décembre 2007 - Disclaimer

ORBIFLY MET'MAP TEAM :

Programmation & Développement : Alexandra Zaïnal
Sur une idée originale de : Baudouin d'Aumeries
Assistance à la programmation : Marc-Olivier Méhu
Soutien technique & logistique : Manuel Goepfert

Contact : metmap@orbifly.com




SOURCES & CREDITS :

   NOAA